Time;durP1;ratioP1;P1;durP2;ratioP2;P2;SDS_P1;SDS_P2;PMS_P1;PMS_P2;Temp;Humidity;BMP_temperature;BMP_pressure;BME280_temperature;BME280_humidity;BME280_pressure;Samples;Min_cycle;Max_cycle;Signal;HPM_P1;HPM_P2
2022/06/25 00:00:02;;;;;;;8.80;5.70;;;21.20;99.90;;;;;;5020862;28;20730;-72
2022/06/25 00:02:54;;;;;;;5.70;5.00;;;21.30;99.90;;;;;;5019423;28;20232;-72
2022/06/25 00:05:42;;;;;;;11.15;5.63;;;21.00;99.90;;;;;;5005982;28;20225;-71
2022/06/25 00:08:31;;;;;;;13.02;5.22;;;21.10;99.90;;;;;;5013834;28;20221;-72
2022/06/25 00:14:23;;;;;;;6.28;5.45;;;21.20;99.90;;;;;;4984683;28;20221;-71
2022/06/25 00:17:13;;;;;;;6.07;5.47;;;21.20;99.90;;;;;;5021935;28;20222;-72
2022/06/25 00:20:02;;;;;;;6.47;5.65;;;21.20;99.90;;;;;;5020723;28;20225;-73
2022/06/25 00:22:54;;;;;;;8.52;6.10;;;21.10;99.90;;;;;;5018388;28;20225;-72
2022/06/25 00:25:42;;;;;;;9.57;5.93;;;21.10;99.90;;;;;;5018951;28;20233;-70
2022/06/25 00:28:31;;;;;;;12.15;6.20;;;21.10;99.90;;;;;;5019909;28;20229;-71
2022/06/25 00:31:19;;;;;;;6.68;5.75;;;21.10;99.90;;;;;;5005412;28;20608;-70
2022/06/25 00:34:10;;;;;;;9.30;6.07;;;21.00;99.90;;;;;;5025754;28;20240;-70
2022/06/25 00:36:58;;;;;;;9.38;6.80;;;20.90;99.90;;;;;;5019988;28;20229;-71
2022/06/25 00:39:47;;;;;;;7.40;6.53;;;20.90;99.90;;;;;;5011196;28;20737;-71
2022/06/25 00:42:35;;;;;;;8.43;6.60;;;20.90;99.90;;;;;;5003030;28;20569;-71
2022/06/25 00:45:24;;;;;;;8.77;6.90;;;20.90;99.90;;;;;;5010370;28;20273;-70
2022/06/25 00:48:12;;;;;;;9.68;6.57;;;20.80;99.90;;;;;;5021514;28;20863;-70
2022/06/25 00:51:09;;;;;;;7.97;6.40;;;20.80;99.90;;;;;;5008254;28;20268;-72
2022/06/25 00:54:02;;;;;;;9.45;6.63;;;20.80;99.90;;;;;;5026939;28;20707;-72
2022/06/25 00:56:52;;;;;;;9.60;6.50;;;20.50;99.90;;;;;;5024048;28;20230;-72
2022/06/25 00:59:44;;;;;;;7.75;6.75;;;20.60;99.90;;;;;;5022878;28;20229;-72
2022/06/25 01:02:36;;;;;;;9.57;6.40;;;20.60;99.90;;;;;;5020067;28;20236;-71
2022/06/25 01:05:26;;;;;;;7.47;6.15;;;20.70;99.90;;;;;;5010076;28;20221;-71
2022/06/25 01:08:16;;;;;;;8.18;6.18;;;20.60;99.90;;;;;;5023563;28;20298;-73
2022/06/25 01:11:04;;;;;;;8.90;6.03;;;20.40;99.90;;;;;;5008286;28;20226;-72
2022/06/25 01:13:53;;;;;;;8.73;6.38;;;20.40;99.90;;;;;;5019314;28;20324;-71
2022/06/25 01:16:43;;;;;;;8.60;6.43;;;20.40;99.90;;;;;;5002008;28;20327;-71
2022/06/25 01:19:32;;;;;;;6.70;5.85;;;20.30;99.90;;;;;;5008894;28;20226;-70
2022/06/25 01:22:22;;;;;;;7.82;6.28;;;20.30;99.90;;;;;;5000131;28;20688;-72
2022/06/25 01:25:12;;;;;;;8.82;6.20;;;20.30;99.90;;;;;;5021819;28;20226;-73
2022/06/25 01:28:01;;;;;;;9.50;5.80;;;20.30;99.90;;;;;;5011931;28;21117;-72
2022/06/25 01:30:49;;;;;;;7.57;6.03;;;20.10;99.90;;;;;;5013143;28;20266;-72
2022/06/25 01:33:38;;;;;;;10.18;6.28;;;20.10;99.90;;;;;;5009026;28;20304;-71
2022/06/25 01:36:33;;;;;;;6.88;5.40;;;20.10;99.90;;;;;;5008799;28;20236;-72
2022/06/25 01:39:23;;;;;;;8.07;5.95;;;19.90;99.90;;;;;;5021941;28;20229;-71
2022/06/25 01:45:18;;;;;;;10.15;5.63;;;20.00;99.90;;;;;;5008434;28;20671;-72
2022/06/25 01:48:08;;;;;;;8.40;5.68;;;20.00;99.90;;;;;;5007666;28;20224;-72
2022/06/25 01:50:58;;;;;;;9.32;6.07;;;20.00;99.90;;;;;;4992320;28;20237;-74
2022/06/25 01:53:47;;;;;;;8.88;5.38;;;19.90;99.90;;;;;;5005071;28;20270;-70
2022/06/25 01:56:37;;;;;;;7.50;5.47;;;19.90;99.90;;;;;;5021441;28;20225;-72
2022/06/25 01:59:26;;;;;;;10.85;5.85;;;19.90;99.90;;;;;;5007258;28;20225;-73
2022/06/25 02:02:14;;;;;;;6.13;5.55;;;19.90;99.90;;;;;;5010987;28;20218;-72
2022/06/25 02:05:03;;;;;;;6.93;6.10;;;19.90;99.90;;;;;;5011843;28;20219;-72
2022/06/25 02:07:52;;;;;;;9.60;5.88;;;19.90;99.90;;;;;;5008345;28;20229;-73
2022/06/25 02:10:41;;;;;;;8.00;5.80;;;19.90;99.90;;;;;;5004069;28;20226;-73
2022/06/25 02:13:31;;;;;;;8.32;5.82;;;19.80;99.90;;;;;;5006067;28;20388;-73
2022/06/25 02:16:20;;;;;;;7.82;5.93;;;19.90;99.90;;;;;;5018259;28;20336;-69
2022/06/25 02:19:09;;;;;;;7.57;5.80;;;19.90;99.90;;;;;;5018848;28;20218;-73
2022/06/25 02:21:57;;;;;;;8.95;5.38;;;19.90;99.90;;;;;;5017661;28;20321;-72
2022/06/25 02:24:46;;;;;;;6.82;5.03;;;19.90;99.90;;;;;;5008097;28;20221;-71
2022/06/25 02:27:36;;;;;;;7.13;5.30;;;19.90;99.90;;;;;;5013849;28;20222;-72
2022/06/25 02:30:26;;;;;;;9.60;5.65;;;19.80;99.90;;;;;;5022791;28;20232;-72
2022/06/25 02:33:15;;;;;;;6.82;5.60;;;19.70;99.90;;;;;;5019948;28;20868;-72
2022/06/25 02:36:05;;;;;;;6.53;5.78;;;19.70;99.90;;;;;;5008463;28;20320;-72
2022/06/25 02:38:53;;;;;;;8.45;5.68;;;19.70;99.90;;;;;;5000243;28;20354;-72
2022/06/25 02:41:42;;;;;;;8.20;5.80;;;19.70;99.90;;;;;;5021267;28;20222;-72
2022/06/25 02:44:30;;;;;;;7.80;5.63;;;19.60;99.90;;;;;;5025748;28;20244;-71
2022/06/25 02:47:22;;;;;;;7.18;5.68;;;19.70;99.90;;;;;;5011236;28;20232;-68
2022/06/25 02:50:24;;;;;;;6.95;5.47;;;19.80;99.90;;;;;;5006847;28;20225;-73
2022/06/25 02:53:13;;;;;;;7.47;5.70;;;19.70;99.90;;;;;;5006539;28;20222;-74
2022/06/25 02:59:12;;;;;;;6.15;5.55;;;19.80;99.90;;;;;;5010774;28;20628;-70
2022/06/25 03:02:05;;;;;;;5.70;5.10;;;19.90;99.90;;;;;;5007316;28;20678;-71
2022/06/25 03:04:59;;;;;;;9.80;5.20;;;19.90;99.90;;;;;;5028617;28;20275;-71
2022/06/25 03:07:49;;;;;;;6.15;5.13;;;19.90;99.90;;;;;;5007956;28;20228;-69
2022/06/25 03:10:43;;;;;;;6.30;5.50;;;19.90;99.90;;;;;;5004134;28;20229;-72
2022/06/25 03:13:34;;;;;;;5.97;5.25;;;19.90;99.90;;;;;;5016262;28;20221;-72
2022/06/25 03:16:22;;;;;;;6.70;5.35;;;20.00;99.90;;;;;;5007837;28;20218;-76
2022/06/25 03:19:12;;;;;;;6.93;5.93;;;19.90;99.90;;;;;;5016345;28;20312;-69
2022/06/25 03:22:35;;;;;;;6.70;5.70;;;19.60;99.90;;;;;;5010664;28;20225;-72
2022/06/25 03:25:24;;;;;;;8.77;5.65;;;19.70;99.90;;;;;;5022104;28;20275;-73
2022/06/25 03:28:12;;;;;;;7.35;5.53;;;19.60;99.90;;;;;;5006526;28;20735;-71
2022/06/25 03:31:04;;;;;;;9.20;5.45;;;19.60;99.90;;;;;;4999801;28;20273;-73
2022/06/25 03:33:53;;;;;;;8.80;5.20;;;19.80;99.90;;;;;;5028920;28;20307;-71
2022/06/25 03:36:52;;;;;;;5.78;4.80;;;20.00;99.90;;;;;;5006520;28;20217;-71
2022/06/25 03:39:43;;;;;;;8.38;5.00;;;20.20;99.90;;;;;;5005120;28;20698;-71
2022/06/25 03:42:32;;;;;;;7.65;5.13;;;20.20;99.90;;;;;;5007886;28;20218;-70
2022/06/25 03:45:26;;;;;;;7.10;5.32;;;20.10;99.90;;;;;;5015125;28;20573;-71
2022/06/25 03:48:15;;;;;;;5.60;4.72;;;20.00;99.90;;;;;;5006704;28;20217;-70
2022/06/25 03:51:23;;;;;;;6.47;4.97;;;20.20;99.90;;;;;;5023197;28;20221;-69
2022/06/25 03:54:11;;;;;;;6.15;4.90;;;20.10;99.90;;;;;;5025706;28;21609;-71
2022/06/25 03:57:02;;;;;;;7.55;5.43;;;20.30;99.90;;;;;;5020068;28;20751;-71
2022/06/25 04:00:05;;;;;;;5.68;5.18;;;20.10;99.90;;;;;;5001690;28;20232;-69
2022/06/25 04:03:04;;;;;;;5.97;4.97;;;20.10;99.90;;;;;;5007151;28;20813;-72
2022/06/25 04:06:17;;;;;;;5.70;5.07;;;20.30;99.90;;;;;;5008048;28;20376;-70
2022/06/25 04:09:07;;;;;;;6.57;4.60;;;20.50;99.90;;;;;;5008569;28;20298;-71
2022/06/25 04:11:56;;;;;;;6.85;4.90;;;20.40;99.90;;;;;;5016919;28;20706;-70
2022/06/25 04:14:46;;;;;;;7.35;4.80;;;20.40;99.90;;;;;;5009503;28;20577;-71
2022/06/25 04:17:34;;;;;;;6.22;5.10;;;20.40;99.90;;;;;;5036861;28;20704;-71
2022/06/25 04:20:25;;;;;;;4.88;4.43;;;20.40;99.90;;;;;;5016048;28;20249;-73
2022/06/25 04:23:14;;;;;;;5.60;4.55;;;20.50;99.90;;;;;;5010803;28;20229;-72
2022/06/25 04:26:03;;;;;;;9.02;4.57;;;20.50;99.90;;;;;;5012429;28;20248;-72
2022/06/25 04:29:03;;;;;;;10.25;5.00;;;20.50;99.90;;;;;;5025318;28;20229;-72
2022/06/25 04:32:11;;;;;;;4.60;4.20;;;20.80;99.90;;;;;;5007152;28;20228;-70
2022/06/25 04:35:16;;;;;;;7.80;4.85;;;20.90;99.90;;;;;;5022078;28;20222;-70
2022/06/25 04:38:07;;;;;;;7.38;4.78;;;20.90;99.90;;;;;;5011388;28;20222;-70
2022/06/25 04:40:56;;;;;;;5.03;4.53;;;21.00;99.90;;;;;;5025290;28;20806;-71
2022/06/25 04:43:45;;;;;;;6.45;4.60;;;21.00;99.90;;;;;;5003535;28;20268;-71
2022/06/25 04:46:38;;;;;;;5.60;4.50;;;21.20;99.90;;;;;;4995101;28;20888;-70
2022/06/25 04:49:28;;;;;;;5.20;4.70;;;21.30;99.90;;;;;;5006365;28;20218;-71
2022/06/25 04:52:18;;;;;;;8.23;4.40;;;21.20;99.90;;;;;;5010318;28;20221;-70
2022/06/25 04:55:07;;;;;;;7.28;4.45;;;21.50;99.90;;;;;;5010560;28;20229;-69
2022/06/25 04:57:56;;;;;;;4.63;4.20;;;21.60;99.90;;;;;;5003126;28;20659;-72
2022/06/25 05:01:03;;;;;;;6.63;4.78;;;21.50;99.90;;;;;;5019856;28;20279;-70
2022/06/25 05:03:52;;;;;;;5.22;4.30;;;21.60;99.90;;;;;;5011092;28;20249;-71
2022/06/25 05:06:43;;;;;;;9.30;4.60;;;21.80;99.90;;;;;;4999487;28;21039;-71
2022/06/25 05:09:32;;;;;;;6.88;4.47;;;21.90;99.90;;;;;;5011415;28;20217;-71
2022/06/25 05:15:24;;;;;;;5.97;4.50;;;22.00;99.90;;;;;;5010577;28;20221;-73
2022/06/25 05:18:13;;;;;;;5.32;4.70;;;22.10;99.90;;;;;;5023423;28;20264;-71
2022/06/25 05:21:02;;;;;;;6.15;4.60;;;22.20;99.90;;;;;;5019911;28;20244;-81
2022/06/25 05:23:52;;;;;;;9.82;4.68;;;22.50;99.90;;;;;;5007326;28;20236;-79
2022/06/25 05:26:42;;;;;;;5.80;4.47;;;22.60;99.90;;;;;;5004977;28;20300;-73
2022/06/25 05:29:31;;;;;;;8.20;4.40;;;22.70;99.90;;;;;;5010080;28;20225;-80
2022/06/25 05:32:20;;;;;;;7.95;4.18;;;22.80;99.90;;;;;;5032713;28;20300;-80
2022/06/25 05:35:09;;;;;;;9.40;4.32;;;22.80;99.90;;;;;;5003955;28;20218;-79
2022/06/25 05:38:01;;;;;;;7.18;4.53;;;23.00;99.90;;;;;;5010677;28;20398;-78
2022/06/25 05:40:55;;;;;;;5.03;4.25;;;23.00;99.90;;;;;;5003320;28;20324;-80
2022/06/25 05:43:43;;;;;;;8.93;5.07;;;23.10;99.90;;;;;;5009457;28;20222;-80
2022/06/25 05:46:35;;;;;;;7.70;5.13;;;23.20;99.90;;;;;;5009884;28;20730;-81
2022/06/25 05:49:28;;;;;;;8.63;4.97;;;23.30;99.90;;;;;;5008432;28;20222;-80
2022/06/25 05:52:17;;;;;;;7.70;4.65;;;23.20;99.90;;;;;;5009348;28;20225;-80
2022/06/25 05:55:06;;;;;;;4.93;4.43;;;23.40;99.90;;;;;;5016689;28;20232;-78
2022/06/25 05:57:56;;;;;;;5.80;4.70;;;23.50;99.90;;;;;;5010626;28;20240;-80
2022/06/25 06:00:45;;;;;;;6.18;4.40;;;23.70;99.90;;;;;;5020277;28;20221;-78
2022/06/25 06:03:34;;;;;;;5.00;4.32;;;23.70;99.70;;;;;;4995035;28;20232;-79
2022/06/25 06:06:23;;;;;;;5.53;4.43;;;23.60;99.00;;;;;;5024763;28;20237;-79
2022/06/25 06:09:12;;;;;;;5.30;4.75;;;23.90;99.90;;;;;;5021604;28;20217;-80
2022/06/25 06:12:01;;;;;;;7.10;4.28;;;24.10;99.10;;;;;;5018148;28;20245;-79
2022/06/25 06:14:54;;;;;;;6.38;4.40;;;24.20;98.40;;;;;;5023614;28;20239;-74
2022/06/25 06:17:43;;;;;;;6.45;4.35;;;24.30;97.70;;;;;;5003534;28;20229;-76
2022/06/25 06:20:32;;;;;;;6.90;4.10;;;24.40;96.70;;;;;;5014380;28;20247;-77
2022/06/25 06:23:20;;;;;;;8.27;4.50;;;24.60;96.90;;;;;;5019637;28;20219;-77
2022/06/25 06:26:09;;;;;;;4.25;3.75;;;25.40;93.90;;;;;;5006381;28;20218;-77
2022/06/25 06:28:57;;;;;;;4.75;4.20;;;26.30;91.10;;;;;;5006389;28;20206;-78
2022/06/25 06:31:47;;;;;;;4.65;4.25;;;27.80;86.30;;;;;;5019384;28;20526;-76
2022/06/25 06:34:36;;;;;;;6.47;4.50;;;27.30;83.60;;;;;;5016761;28;20236;-81
2022/06/25 06:37:24;;;;;;;5.25;4.38;;;26.70;86.20;;;;;;5021485;28;20225;-76
2022/06/25 06:40:14;;;;;;;4.72;4.18;;;26.50;89.30;;;;;;5019440;28;20236;-78
2022/06/25 06:43:03;;;;;;;6.38;4.50;;;26.10;85.30;;;;;;5024099;28;20213;-78
2022/06/25 06:45:51;;;;;;;4.60;4.20;;;26.10;86.30;;;;;;5021513;28;20761;-77
2022/06/25 06:48:42;;;;;;;6.72;4.25;;;25.80;86.90;;;;;;5013388;28;20309;-78
2022/06/25 06:51:30;;;;;;;6.18;4.00;;;26.00;85.70;;;;;;5020393;28;20218;-79
2022/06/25 06:54:19;;;;;;;8.85;4.18;;;26.30;84.30;;;;;;5020831;28;20269;-76
2022/06/25 06:57:07;;;;;;;5.88;3.75;;;26.40;82.80;;;;;;5024161;28;20221;-79
2022/06/25 06:59:58;;;;;;;5.25;3.88;;;26.40;81.60;;;;;;5022023;28;20222;-78
2022/06/25 07:02:47;;;;;;;4.15;3.80;;;26.30;81.10;;;;;;5018636;28;20229;-77
2022/06/25 07:05:37;;;;;;;3.45;3.15;;;26.30;80.70;;;;;;5017773;28;20309;-77
2022/06/25 07:08:40;;;;;;;4.97;4.00;;;26.50;80.50;;;;;;5008541;28;20251;-77
2022/06/25 07:11:31;;;;;;;4.82;3.33;;;26.60;78.70;;;;;;5008077;28;20232;-77
2022/06/25 07:14:20;;;;;;;4.35;3.78;;;26.90;79.00;;;;;;5022816;28;20233;-75
2022/06/25 07:17:09;;;;;;;5.97;3.85;;;27.20;76.70;;;;;;5021680;28;20213;-77
2022/06/25 07:19:58;;;;;;;4.40;3.60;;;27.60;77.10;;;;;;5024018;28;20217;-75
2022/06/25 07:22:49;;;;;;;8.45;3.90;;;27.20;76.30;;;;;;5021889;28;20225;-77
2022/06/25 07:25:37;;;;;;;4.47;4.07;;;27.40;76.80;;;;;;5018553;28;20229;-74
2022/06/25 07:28:26;;;;;;;4.38;3.60;;;27.70;75.50;;;;;;5006667;28;20255;-76
2022/06/25 07:31:15;;;;;;;5.82;3.67;;;27.70;71.80;;;;;;5012562;28;20584;-75
2022/06/25 07:34:04;;;;;;;4.43;3.80;;;28.00;71.80;;;;;;5017173;28;20343;-77
2022/06/25 07:36:52;;;;;;;4.20;3.80;;;28.40;72.50;;;;;;5001555;28;20229;-74
2022/06/25 07:39:42;;;;;;;5.13;3.63;;;28.70;71.00;;;;;;5008706;28;20214;-76
2022/06/25 07:42:31;;;;;;;4.32;3.80;;;29.20;68.80;;;;;;5036121;28;20322;-76
2022/06/25 07:45:20;;;;;;;4.43;4.00;;;29.40;68.00;;;;;;5022189;28;20224;-74
2022/06/25 07:48:08;;;;;;;5.85;3.30;;;30.00;68.00;;;;;;5013335;28;20312;-77
2022/06/25 07:54:03;;;;;;;3.95;3.65;;;30.60;63.50;;;;;;5029110;28;20231;-76
2022/06/25 07:56:53;;;;;;;6.53;3.20;;;30.90;62.90;;;;;;5024154;28;20244;-77
2022/06/25 07:59:42;;;;;;;4.78;3.22;;;31.20;59.90;;;;;;5016927;28;20226;-76
2022/06/25 08:02:30;;;;;;;4.32;3.20;;;31.30;59.80;;;;;;5008876;28;20749;-77
2022/06/25 08:05:20;;;;;;;4.03;3.38;;;31.70;58.40;;;;;;5024969;28;20242;-76
2022/06/25 08:08:09;;;;;;;3.30;3.00;;;31.90;57.80;;;;;;5023155;28;20237;-79
2022/06/25 08:10:57;;;;;;;3.67;3.38;;;31.90;56.40;;;;;;5025899;28;20228;-75
2022/06/25 08:13:47;;;;;;;4.03;3.17;;;32.10;56.70;;;;;;5034802;28;20483;-76
2022/06/25 08:16:37;;;;;;;7.78;3.67;;;32.60;55.50;;;;;;5025467;28;20233;-76
2022/06/25 08:19:26;;;;;;;6.78;3.15;;;32.80;56.30;;;;;;5031337;28;20253;-77
2022/06/25 08:22:15;;;;;;;7.18;2.92;;;32.90;55.90;;;;;;5032220;28;20228;-77
2022/06/25 08:25:04;;;;;;;7.28;3.10;;;33.20;54.30;;;;;;5028247;28;20232;-77
2022/06/25 08:27:54;;;;;;;3.85;2.90;;;33.20;52.80;;;;;;5026378;28;20255;-79
2022/06/25 08:30:45;;;;;;;3.95;2.85;;;32.90;53.00;;;;;;5018809;28;20573;-78
2022/06/25 08:33:34;;;;;;;2.97;2.63;;;33.20;52.60;;;;;;5021334;28;20225;-79
2022/06/25 08:36:23;;;;;;;6.22;3.10;;;33.30;51.40;;;;;;5028310;28;20235;-82
2022/06/25 08:39:11;;;;;;;5.60;2.75;;;33.40;51.70;;;;;;5025932;28;20588;-79
2022/06/25 08:42:06;;;;;;;2.97;2.65;;;33.60;51.70;;;;;;5028536;28;20228;-80
2022/06/25 08:44:55;;;;;;;4.50;3.10;;;34.00;51.60;;;;;;5028421;28;20221;-79
2022/06/25 08:47:50;;;;;;;3.00;2.80;;;34.40;50.70;;;;;;5024059;28;20228;-78
2022/06/25 08:50:39;;;;;;;3.10;2.80;;;34.70;50.40;;;;;;5012752;28;20574;-76
2022/06/25 08:53:32;;;;;;;3.65;3.20;;;34.00;50.80;;;;;;5013600;28;20256;-78
2022/06/25 08:56:21;;;;;;;2.92;2.72;;;34.40;50.40;;;;;;5035654;28;20276;-78
2022/06/25 08:59:10;;;;;;;4.00;2.90;;;34.80;49.40;;;;;;5008804;28;20245;-81
2022/06/25 09:01:59;;;;;;;2.70;2.50;;;35.60;49.00;;;;;;5018467;28;20293;-80
2022/06/25 09:04:49;;;;;;;6.70;2.80;;;35.50;48.40;;;;;;5009481;28;20312;-79
2022/06/25 09:07:37;;;;;;;3.50;3.03;;;36.00;49.00;;;;;;5024063;28;20228;-78
2022/06/25 09:10:27;;;;;;;4.22;2.92;;;35.80;48.00;;;;;;5020315;28;20984;-79
2022/06/25 09:13:16;;;;;;;2.75;2.53;;;35.70;48.70;;;;;;5022302;28;20225;-78
2022/06/25 09:16:04;;;;;;;3.80;2.80;;;36.10;47.60;;;;;;5020580;28;20283;-80
2022/06/25 09:18:53;;;;;;;3.38;2.70;;;36.90;46.60;;;;;;5017204;28;20222;-79
2022/06/25 09:21:43;;;;;;;2.78;2.58;;;37.10;45.70;;;;;;5021669;28;20547;-79
2022/06/25 09:24:43;;;;;;;2.83;2.63;;;38.20;45.30;;;;;;5022683;28;20236;-80
2022/06/25 09:27:36;;;;;;;2.72;2.53;;;37.80;44.50;;;;;;5033091;28;20730;-80
2022/06/25 09:30:29;;;;;;;3.30;2.50;;;38.40;43.40;;;;;;5025411;28;20228;-79
2022/06/25 09:33:19;;;;;;;3.72;2.75;;;38.80;42.00;;;;;;5011842;28;20224;-80
2022/06/25 09:36:09;;;;;;;2.30;2.20;;;39.40;42.00;;;;;;5008320;28;20225;-80
2022/06/25 09:38:59;;;;;;;3.35;2.47;;;39.20;42.50;;;;;;5019767;28;20252;-80
2022/06/25 09:41:53;;;;;;;4.45;2.28;;;38.30;41.70;;;;;;5023569;28;20302;-82
2022/06/25 09:44:42;;;;;;;3.55;2.50;;;38.10;42.80;;;;;;5015449;28;20724;-79
2022/06/25 09:47:31;;;;;;;2.70;2.50;;;38.80;42.80;;;;;;5008533;28;20707;-79
2022/06/25 09:50:21;;;;;;;4.18;2.40;;;39.60;42.10;;;;;;5023825;28;20217;-78
2022/06/25 09:53:10;;;;;;;3.13;2.40;;;40.80;42.30;;;;;;5022543;28;20235;-79
2022/06/25 09:56:04;;;;;;;3.85;2.20;;;40.30;39.30;;;;;;5023025;28;20220;-80
2022/06/25 09:58:54;;;;;;;3.63;2.40;;;40.30;39.50;;;;;;5021920;28;20240;-79
2022/06/25 10:01:43;;;;;;;2.47;2.10;;;41.10;39.10;;;;;;5023535;28;20723;-79
2022/06/25 10:04:32;;;;;;;2.17;2.08;;;42.40;37.90;;;;;;5023473;28;20229;-80
2022/06/25 10:07:59;;;;;;;2.53;2.30;;;44.40;36.10;;;;;;4997810;28;20224;-76
2022/06/25 10:10:34;;;;;;;5.05;2.20;;;43.70;35.80;;;;;;5016386;28;20328;-80
2022/06/25 10:13:25;;;;;;;3.08;2.15;;;44.40;35.20;;;;;;5005363;28;20224;-80
2022/06/25 10:16:16;;;;;;;4.68;2.20;;;44.00;35.40;;;;;;5020828;28;20232;-80
2022/06/25 10:19:06;;;;;;;2.10;1.90;;;43.40;35.50;;;;;;5013352;28;20443;-79
2022/06/25 10:21:55;;;;;;;2.33;2.15;;;44.20;36.10;;;;;;5021849;28;20217;-80
2022/06/25 10:24:43;;;;;;;2.70;2.15;;;43.60;35.50;;;;;;5010966;28;20556;-80
2022/06/25 10:27:39;;;;;;;1.95;1.85;;;44.10;35.50;;;;;;5020842;28;20221;-82
2022/06/25 10:30:46;;;;;;;2.47;2.10;;;44.70;35.20;;;;;;5027245;28;20297;-80
2022/06/25 10:33:51;;;;;;;2.78;2.20;;;44.80;36.10;;;;;;5009476;28;20229;-80
2022/06/25 10:36:42;;;;;;;2.53;2.20;;;44.90;33.30;;;;;;5025185;28;20224;-79
2022/06/25 10:39:36;;;;;;;2.72;2.40;;;45.80;33.70;;;;;;5018546;28;20213;-79
2022/06/25 10:45:55;;;;;;;2.53;2.38;;;44.00;33.60;;;;;;5022405;28;20295;-79
2022/06/25 10:48:51;;;;;;;5.70;2.42;;;44.40;33.80;;;;;;5024422;28;20225;-81
2022/06/25 10:51:44;;;;;;;4.18;2.33;;;45.40;34.70;;;;;;5005759;28;20232;-79
2022/06/25 10:54:38;;;;;;;3.92;2.20;;;44.70;33.60;;;;;;5016681;28;20244;-80
2022/06/25 10:57:39;;;;;;;2.30;2.10;;;44.80;35.10;;;;;;5003792;28;21134;-80
2022/06/25 11:00:45;;;;;;;2.40;2.30;;;45.60;34.40;;;;;;5020084;28;20232;-80
2022/06/25 11:03:44;;;;;;;7.35;2.33;;;46.40;33.60;;;;;;5019973;28;20228;-80
2022/06/25 11:06:35;;;;;;;2.42;2.22;;;47.20;32.70;;;;;;5020032;28;20213;-79
2022/06/25 11:09:24;;;;;;;2.22;2.13;;;47.00;32.30;;;;;;5019398;28;20236;-79
2022/06/25 11:12:13;;;;;;;2.00;1.90;;;47.80;33.70;;;;;;5021088;28;20236;-81
2022/06/25 11:15:03;;;;;;;3.15;2.20;;;46.90;32.50;;;;;;5018409;28;20606;-81
2022/06/25 11:17:52;;;;;;;2.65;2.10;;;45.90;32.70;;;;;;5010975;28;20221;-80
2022/06/25 11:20:43;;;;;;;2.20;2.10;;;45.90;32.70;;;;;;5021835;28;20231;-81
2022/06/25 11:23:31;;;;;;;2.78;2.58;;;43.00;34.30;;;;;;5021005;28;20269;-79
2022/06/25 11:29:27;;;;;;;2.30;2.20;;;45.70;34.20;;;;;;5017871;28;20584;-79
2022/06/25 11:32:20;;;;;;;3.45;2.80;;;47.20;33.50;;;;;;5020349;28;20218;-79
2022/06/25 11:35:09;;;;;;;2.90;2.08;;;45.70;33.20;;;;;;5020686;28;20595;-80
2022/06/25 11:38:02;;;;;;;2.78;2.40;;;45.50;33.00;;;;;;5003033;28;20229;-80
2022/06/25 11:40:53;;;;;;;3.38;2.40;;;46.40;33.10;;;;;;5021140;28;20243;-78
2022/06/25 11:43:41;;;;;;;3.15;2.35;;;45.70;31.90;;;;;;5023269;28;20302;-80
2022/06/25 11:46:30;;;;;;;3.83;2.40;;;45.70;32.90;;;;;;5007118;28;20243;-79
2022/06/25 11:49:22;;;;;;;2.72;2.47;;;46.40;33.20;;;;;;5022917;28;20233;-79
2022/06/25 11:52:11;;;;;;;2.58;2.38;;;45.90;33.10;;;;;;5018710;28;20229;-77
2022/06/25 11:55:02;;;;;;;2.25;2.08;;;45.40;33.50;;;;;;5022461;28;20233;-78
2022/06/25 11:57:51;;;;;;;2.90;2.42;;;45.30;33.00;;;;;;5023888;28;20315;-79
2022/06/25 12:00:39;;;;;;;3.50;2.40;;;44.20;33.90;;;;;;5023568;28;20239;-75
2022/06/25 12:03:29;;;;;;;2.63;2.25;;;44.10;33.80;;;;;;5019669;28;20229;-80
2022/06/25 12:06:18;;;;;;;2.70;2.47;;;44.90;34.30;;;;;;5021520;28;20213;-78
2022/06/25 12:09:07;;;;;;;3.17;2.42;;;43.40;33.30;;;;;;5022206;28;20217;-80
2022/06/25 12:11:57;;;;;;;3.35;2.50;;;44.40;34.10;;;;;;5008368;28;20228;-77
2022/06/25 12:14:48;;;;;;;4.32;2.38;;;45.50;33.30;;;;;;5020240;28;20260;-78
2022/06/25 12:17:38;;;;;;;4.65;2.50;;;45.70;33.10;;;;;;5020239;28;20536;-79
2022/06/25 12:20:27;;;;;;;2.30;2.10;;;44.70;32.80;;;;;;5020806;28;20221;-79
2022/06/25 12:23:15;;;;;;;2.53;2.42;;;42.80;35.10;;;;;;5021490;28;20240;-77
2022/06/25 12:26:04;;;;;;;3.92;2.25;;;43.70;35.70;;;;;;5021032;28;20231;-79
2022/06/25 12:28:54;;;;;;;3.63;2.50;;;44.40;35.00;;;;;;5025124;28;20236;-79
2022/06/25 12:31:43;;;;;;;3.15;2.40;;;;;;;;;;5013923;28;20235;-80
2022/06/25 12:34:32;;;;;;;2.88;2.50;;;45.50;32.90;;;;;;5026498;28;20260;-80
2022/06/25 12:37:27;;;;;;;2.30;2.10;;;44.10;33.30;;;;;;5015156;28;20746;-78
2022/06/25 12:40:24;;;;;;;3.50;2.30;;;43.20;34.00;;;;;;5025880;28;20290;-77
2022/06/25 12:43:14;;;;;;;5.30;2.50;;;40.50;35.60;;;;;;5028285;28;20217;-79
2022/06/25 12:46:09;;;;;;;3.80;2.42;;;39.40;38.50;;;;;;5018221;28;20716;-80
2022/06/25 12:49:01;;;;;;;2.50;2.30;;;41.10;37.10;;;;;;5005070;28;20217;-79
2022/06/25 12:51:50;;;;;;;3.85;2.40;;;41.50;36.50;;;;;;5010130;28;20220;-83
2022/06/25 12:54:48;;;;;;;2.40;2.25;;;41.00;36.50;;;;;;5023740;28;20304;-81
2022/06/25 12:57:38;;;;;;;2.80;2.30;;;40.20;35.50;;;;;;5012676;28;20268;-81
2022/06/25 13:00:27;;;;;;;3.97;2.60;;;38.80;37.40;;;;;;5012230;28;20546;-80
2022/06/25 13:03:17;;;;;;;3.65;2.55;;;37.30;39.60;;;;;;5023554;28;20229;-82
2022/06/25 13:06:06;;;;;;;3.10;2.50;;;36.60;41.10;;;;;;5009602;28;20232;-78
2022/06/25 13:08:55;;;;;;;2.75;2.63;;;35.30;43.40;;;;;;5022133;28;20225;-80
2022/06/25 13:11:43;;;;;;;2.80;2.60;;;34.40;44.10;;;;;;5019086;28;20232;-79
2022/06/25 13:14:32;;;;;;;2.70;2.50;;;33.90;44.20;;;;;;5004040;28;20222;-78
2022/06/25 13:17:20;;;;;;;5.85;3.30;;;33.70;45.30;;;;;;5006667;28;20314;-78
2022/06/25 13:20:16;;;;;;;3.35;3.05;;;33.70;45.90;;;;;;5025165;28;20224;-77
2022/06/25 13:23:04;;;;;;;3.50;3.20;;;33.60;46.50;;;;;;5020386;28;20299;-78
2022/06/25 13:25:53;;;;;;;6.10;2.95;;;33.10;45.80;;;;;;5022747;28;20239;-78
2022/06/25 13:28:42;;;;;;;3.60;3.30;;;32.60;46.10;;;;;;5025181;28;20229;-79
2022/06/25 13:31:31;;;;;;;3.63;3.33;;;32.60;47.40;;;;;;5008907;28;20224;-81
2022/06/25 13:34:19;;;;;;;5.65;3.17;;;32.50;47.80;;;;;;5026094;28;20723;-79
2022/06/25 13:37:09;;;;;;;3.40;3.10;;;32.90;47.70;;;;;;5007534;28;20220;-80
2022/06/25 13:39:58;;;;;;;4.32;3.38;;;32.90;47.70;;;;;;5011373;28;20233;-77
2022/06/25 13:42:46;;;;;;;4.32;3.33;;;32.80;48.20;;;;;;5031834;28;20229;-78
2022/06/25 13:45:35;;;;;;;4.72;3.15;;;32.40;47.60;;;;;;5019726;28;20475;-80
2022/06/25 13:48:23;;;;;;;3.47;3.17;;;32.10;48.30;;;;;;5019149;28;20213;-77
2022/06/25 13:51:14;;;;;;;3.45;3.15;;;32.30;48.70;;;;;;5007252;28;20249;-79
2022/06/25 13:54:04;;;;;;;4.05;3.30;;;32.10;48.80;;;;;;5023713;28;20217;-78
2022/06/25 13:56:52;;;;;;;3.45;3.15;;;32.30;49.10;;;;;;5020761;28;20216;-78
2022/06/25 13:59:41;;;;;;;3.92;3.00;;;32.20;48.70;;;;;;5025309;28;20220;-77
2022/06/25 14:02:30;;;;;;;3.80;3.05;;;32.00;48.50;;;;;;5025564;28;20228;-79
2022/06/25 14:05:18;;;;;;;3.80;3.35;;;31.80;48.80;;;;;;5025540;28;20224;-79
2022/06/25 14:08:07;;;;;;;3.78;3.47;;;31.40;49.30;;;;;;5003157;28;20236;-78
2022/06/25 14:10:57;;;;;;;6.13;3.22;;;31.20;50.20;;;;;;5020458;28;20221;-78
2022/06/25 14:13:45;;;;;;;3.88;3.20;;;31.00;49.70;;;;;;5018062;28;20240;-77
2022/06/25 14:16:34;;;;;;;4.93;3.20;;;31.00;49.60;;;;;;5022027;28;20228;-77
2022/06/25 14:19:23;;;;;;;3.65;3.33;;;30.80;50.70;;;;;;5027142;28;20232;-80
2022/06/25 14:22:11;;;;;;;3.70;3.40;;;31.00;51.00;;;;;;5016678;28;20315;-79
2022/06/25 14:28:13;;;;;;;3.67;3.38;;;30.80;51.50;;;;;;5009660;28;20227;-79
2022/06/25 14:31:01;;;;;;;3.80;3.47;;;30.80;51.80;;;;;;5019407;28;20240;-79
2022/06/25 14:33:50;;;;;;;4.40;3.22;;;30.80;52.00;;;;;;5021987;28;20232;-81
2022/06/25 14:42:47;;;;;;;7.95;3.25;;;30.80;52.20;;;;;;4998643;28;20236;-80
2022/06/25 14:45:38;;;;;;;5.13;3.80;;;30.80;52.20;;;;;;5020894;28;20311;-79
2022/06/25 14:48:26;;;;;;;4.35;3.45;;;30.80;52.10;;;;;;5019872;28;20553;-81
2022/06/25 14:51:15;;;;;;;4.10;3.50;;;30.90;52.00;;;;;;5006477;28;20286;-77
2022/06/25 14:54:04;;;;;;;3.40;3.20;;;31.00;52.40;;;;;;5025454;28;20232;-79
2022/06/25 14:56:53;;;;;;;4.70;3.40;;;30.70;51.90;;;;;;5018213;28;20567;-80
2022/06/25 14:59:41;;;;;;;4.75;3.10;;;30.60;51.40;;;;;;5015075;28;20276;-78
2022/06/25 15:02:31;;;;;;;3.50;3.20;;;30.70;51.90;;;;;;5021772;28;20225;-79
2022/06/25 15:05:23;;;;;;;3.28;3.03;;;30.60;51.70;;;;;;5019402;28;20711;-79
2022/06/25 15:08:11;;;;;;;4.70;3.35;;;30.50;51.50;;;;;;5018795;28;20225;-79
2022/06/25 15:11:08;;;;;;;3.90;3.60;;;30.50;51.30;;;;;;5019704;28;20306;-80
2022/06/25 15:13:57;;;;;;;3.75;3.38;;;30.50;52.60;;;;;;5009304;28;20679;-79
2022/06/25 15:16:46;;;;;;;4.85;3.50;;;30.50;52.50;;;;;;5019726;28;20229;-79
2022/06/25 15:19:36;;;;;;;5.80;3.35;;;30.40;52.00;;;;;;5018674;28;20324;-79